createdAt,value
2019-03-17T00:01:40.599Z,66.95
2019-03-17T00:04:14.302Z,67.12
2019-03-17T00:06:47.944Z,67.34
2019-03-17T00:09:22.844Z,67.33
2019-03-17T00:11:58.266Z,67.28
2019-03-17T00:14:32.060Z,67.32
2019-03-17T00:17:05.966Z,67.36
2019-03-17T00:19:41.348Z,67.14
2019-03-17T00:22:15.525Z,67.33
2019-03-17T00:24:49.188Z,66.59
2019-03-17T00:27:26.457Z,66.51
2019-03-17T00:30:02.518Z,66.69
2019-03-17T00:32:38.904Z,66.71
2019-03-17T00:35:12.910Z,66.58
2019-03-17T00:37:46.551Z,66.59
2019-03-17T00:40:20.648Z,66.13
2019-03-17T00:42:55.365Z,66.55
2019-03-17T00:45:30.068Z,66.55
2019-03-17T00:48:05.566Z,66.64
2019-03-17T00:50:39.652Z,66.79
2019-03-17T00:53:13.702Z,66.76
2019-03-17T00:55:48.371Z,66.57
2019-03-17T00:58:21.973Z,66.20
2019-03-17T01:00:55.898Z,66.29
2019-03-17T01:03:29.999Z,66.45
2019-03-17T01:06:03.870Z,66.53
2019-03-17T01:08:37.613Z,66.48
2019-03-17T01:11:14.613Z,66.45
2019-03-17T01:13:48.299Z,66.33
2019-03-17T01:16:23.031Z,66.64
2019-03-17T01:18:57.039Z,67.03
2019-03-17T01:21:30.644Z,66.91
2019-03-17T01:24:04.634Z,66.50
2019-03-17T01:26:38.365Z,66.90
2019-03-17T01:29:13.195Z,66.75
2019-03-17T01:31:47.923Z,66.88
2019-03-17T01:34:23.442Z,66.78
2019-03-17T01:36:58.303Z,67.24
2019-03-17T01:39:33.296Z,67.05
2019-03-17T01:42:07.453Z,66.96
2019-03-17T01:44:41.219Z,66.93
2019-03-17T01:47:14.834Z,67.17
2019-03-17T01:49:48.730Z,67.43
2019-03-17T01:52:22.366Z,67.44
2019-03-17T01:54:56.084Z,67.15
2019-03-17T01:57:31.070Z,67.52
2019-03-17T02:00:05.208Z,67.35
2019-03-17T02:02:38.886Z,67.12
2019-03-17T02:05:22.134Z,67.07
2019-03-17T02:07:51.263Z,66.89
2019-03-17T02:10:25.054Z,66.99
2019-03-17T02:12:59.899Z,67.22
2019-03-17T02:15:34.709Z,67.09
2019-03-17T02:18:23.818Z,67.34
2019-03-17T02:20:58.928Z,67.20
2019-03-17T02:23:32.582Z,67.22
2019-03-17T02:26:06.335Z,67.27
2019-03-17T02:28:40.379Z,67.21
2019-03-17T02:31:14.081Z,67.21
2019-03-17T02:33:48.032Z,67.35
2019-03-17T02:36:21.803Z,67.35
2019-03-17T02:38:57.220Z,67.27
2019-03-17T02:41:33.889Z,67.32
2019-03-17T02:44:07.710Z,67.53
2019-03-17T02:46:42.537Z,67.58
2019-03-17T02:49:18.288Z,67.20
2019-03-17T02:51:53.525Z,67.21
2019-03-17T02:54:27.332Z,67.28
2019-03-17T02:57:01.460Z,67.18
2019-03-17T02:59:35.553Z,66.92
2019-03-17T03:02:09.287Z,67.29
2019-03-17T03:04:42.990Z,67.68
2019-03-17T03:07:17.704Z,67.71
2019-03-17T03:09:51.656Z,68.13
2019-03-17T03:12:26.443Z,67.89
2019-03-17T03:15:00.554Z,67.90
2019-03-17T03:17:36.428Z,68.05
2019-03-17T03:20:10.686Z,67.99
2019-03-17T03:22:44.659Z,68.23
2019-03-17T03:25:18.542Z,68.07
2019-03-17T03:27:52.187Z,68.47
2019-03-17T03:30:27.077Z,68.70
2019-03-17T03:33:00.838Z,68.84
2019-03-17T03:35:36.752Z,69.21
2019-03-17T03:38:10.484Z,69.18
2019-03-17T03:40:45.353Z,69.10
2019-03-17T03:43:20.902Z,69.09
2019-03-17T03:45:54.741Z,69.13
2019-03-17T03:48:29.578Z,68.94
2019-03-17T03:51:03.447Z,68.62
2019-03-17T03:53:38.317Z,68.60
2019-03-17T03:56:12.486Z,68.25
2019-03-17T03:58:46.896Z,68.11
2019-03-17T04:01:20.594Z,67.93
2019-03-17T04:03:54.430Z,67.71
2019-03-17T04:06:29.418Z,67.82
2019-03-17T04:09:04.973Z,67.82
2019-03-17T04:11:39.487Z,67.28
2019-03-17T04:14:16.719Z,67.44
2019-03-17T04:16:51.495Z,67.64
2019-03-17T04:19:25.406Z,67.17
2019-03-17T04:21:59.142Z,67.09
2019-03-17T04:24:33.072Z,67.07
2019-03-17T04:27:06.825Z,66.96
2019-03-17T04:29:42.990Z,66.88
2019-03-17T04:32:16.999Z,66.53
2019-03-17T04:34:52.142Z,67.08
2019-03-17T04:37:25.898Z,67.17
2019-03-17T04:40:00.873Z,66.68
2019-03-17T04:42:34.725Z,66.81
2019-03-17T04:45:08.458Z,66.34
2019-03-17T04:47:42.260Z,66.36
2019-03-17T04:50:17.034Z,66.43
2019-03-17T04:52:50.819Z,66.46
2019-03-17T04:55:26.388Z,66.55
2019-03-17T04:58:00.168Z,66.79
2019-03-17T05:00:35.267Z,66.95
2019-03-17T05:03:08.937Z,66.81
2019-03-17T05:05:44.891Z,67.15
2019-03-17T05:08:20.319Z,67.06
2019-03-17T05:10:55.375Z,67.36
2019-03-17T05:13:31.537Z,67.51
2019-03-17T05:16:05.226Z,67.50
2019-03-17T05:18:39.086Z,67.74
2019-03-17T05:21:13.894Z,68.03
2019-03-17T05:23:49.221Z,67.81
2019-03-17T05:26:23.381Z,67.74
2019-03-17T05:28:57.143Z,67.73
2019-03-17T05:31:30.896Z,68.07
2019-03-17T05:34:05.684Z,68.23
2019-03-17T05:36:41.126Z,68.33
2019-03-17T05:39:16.678Z,68.21
2019-03-17T05:41:52.223Z,68.24
2019-03-17T05:44:27.873Z,68.31
2019-03-17T05:47:01.918Z,68.34
2019-03-17T05:49:36.817Z,68.15
2019-03-17T05:52:10.617Z,68.10
2019-03-17T05:54:44.240Z,68.01
2019-03-17T05:57:19.807Z,67.80
2019-03-17T05:59:53.476Z,67.89
2019-03-17T06:02:29.030Z,67.83
2019-03-17T06:05:05.295Z,67.82
2019-03-17T06:07:38.974Z,67.60
2019-03-17T06:10:12.744Z,67.46
2019-03-17T06:12:46.410Z,67.45
2019-03-17T06:15:20.055Z,67.08
2019-03-17T06:17:53.808Z,66.71
2019-03-17T06:20:29.570Z,66.02
2019-03-17T06:23:03.457Z,66.10
2019-03-17T06:25:37.335Z,66.46
2019-03-17T06:28:11.057Z,65.77
2019-03-17T06:30:46.034Z,65.63
2019-03-17T06:33:20.847Z,65.93
2019-03-17T06:35:56.453Z,65.83
2019-03-17T06:38:30.147Z,66.17
2019-03-17T06:41:04.438Z,66.39
2019-03-17T06:43:38.377Z,66.33
2019-03-17T06:46:14.610Z,66.46
2019-03-17T06:48:48.633Z,66.92
2019-03-17T06:51:22.266Z,66.94
2019-03-17T06:54:14.898Z,66.98
2019-03-17T06:56:48.907Z,67.21
2019-03-17T06:59:23.580Z,67.51
2019-03-17T07:01:57.524Z,67.23
2019-03-17T07:04:33.888Z,67.36
2019-03-17T07:07:07.690Z,67.47
2019-03-17T07:09:42.103Z,67.67
2019-03-17T07:12:16.846Z,67.07
2019-03-17T07:14:50.662Z,67.65
2019-03-17T07:17:24.751Z,66.94
2019-03-17T07:20:00.440Z,67.08
2019-03-17T07:22:34.314Z,67.00
2019-03-17T07:25:08.451Z,66.95
2019-03-17T07:27:42.364Z,66.82
2019-03-17T07:30:16.497Z,66.72
2019-03-17T07:32:51.241Z,67.08
2019-03-17T07:35:26.087Z,67.18
2019-03-17T07:38:00.141Z,67.32
2019-03-17T07:40:34.170Z,67.52
2019-03-17T07:43:09.907Z,67.32
2019-03-17T07:45:43.853Z,67.45
2019-03-17T07:48:19.362Z,68.05
2019-03-17T07:50:54.213Z,68.32
2019-03-17T07:53:27.941Z,68.15
2019-03-17T07:56:01.943Z,68.17
2019-03-17T07:58:36.029Z,67.54
2019-03-17T08:01:09.743Z,67.39
2019-03-17T08:03:45.093Z,67.89
2019-03-17T08:06:21.750Z,67.56
2019-03-17T08:08:55.507Z,67.72
2019-03-17T08:11:30.025Z,67.66
2019-03-17T08:14:04.809Z,67.78
2019-03-17T08:16:40.821Z,67.92
2019-03-17T08:19:17.440Z,68.25
2019-03-17T08:21:51.216Z,69.02
2019-03-17T08:24:24.899Z,69.25
2019-03-17T08:26:58.890Z,69.55
2019-03-17T08:29:32.756Z,69.89
2019-03-17T08:32:06.528Z,69.90
2019-03-17T08:34:43.767Z,70.35
2019-03-17T08:37:17.586Z,70.50
2019-03-17T08:39:51.324Z,70.62
2019-03-17T08:42:25.147Z,71.29
2019-03-17T08:44:58.872Z,70.86
2019-03-17T08:47:34.365Z,71.15
2019-03-17T08:50:09.076Z,71.12
2019-03-17T08:52:43.066Z,71.22
2019-03-17T08:55:16.659Z,70.73
2019-03-17T08:57:50.263Z,71.43
2019-03-17T09:00:24.114Z,71.25
2019-03-17T09:02:57.840Z,70.94
2019-03-17T09:05:31.573Z,70.96
2019-03-17T09:08:06.400Z,71.58
2019-03-17T09:10:40.176Z,71.58
2019-03-17T09:13:14.341Z,71.89
2019-03-17T09:15:49.144Z,72.05
2019-03-17T09:18:23.037Z,72.47
2019-03-17T09:20:56.655Z,73.00
2019-03-17T09:23:30.700Z,73.36
2019-03-17T09:26:04.771Z,73.35
2019-03-17T09:28:39.409Z,74.60
2019-03-17T09:31:13.189Z,74.63
2019-03-17T09:33:47.135Z,77.89
2019-03-17T09:36:22.117Z,80.12
2019-03-17T09:38:55.995Z,82.12
2019-03-17T09:41:30.550Z,82.39
2019-03-17T09:44:05.786Z,82.63
2019-03-17T09:46:40.937Z,82.93
2019-03-17T09:49:14.738Z,84.41
2019-03-17T09:51:49.796Z,83.33
2019-03-17T09:54:23.652Z,82.46
2019-03-17T09:56:57.429Z,81.77
2019-03-17T09:59:31.612Z,81.61
2019-03-17T10:02:05.333Z,81.08
2019-03-17T10:04:39.119Z,81.55
2019-03-17T10:07:13.081Z,81.47
2019-03-17T10:09:46.926Z,79.92
2019-03-17T10:12:22.612Z,79.10
2019-03-17T10:14:56.618Z,78.66
2019-03-17T10:17:30.219Z,79.02
2019-03-17T10:20:05.424Z,77.89
2019-03-17T10:22:39.966Z,78.51
2019-03-17T10:25:14.456Z,77.95
2019-03-17T10:27:49.316Z,78.54
2019-03-17T10:30:25.262Z,77.82
2019-03-17T10:32:58.986Z,77.93
2019-03-17T10:35:33.720Z,78.45
2019-03-17T10:38:07.767Z,77.35
2019-03-17T10:40:42.159Z,76.32
2019-03-17T10:43:16.131Z,76.59
2019-03-17T10:45:50.995Z,76.53
2019-03-17T10:48:24.625Z,76.03
2019-03-17T10:50:59.794Z,75.61
2019-03-17T10:53:33.744Z,75.60
2019-03-17T10:56:07.605Z,75.04
2019-03-17T10:58:41.380Z,75.10
2019-03-17T11:01:15.121Z,74.78
2019-03-17T11:03:49.901Z,74.31
2019-03-17T11:06:23.755Z,73.78
2019-03-17T11:08:58.776Z,73.13
2019-03-17T11:11:32.582Z,73.70
2019-03-17T11:14:06.438Z,74.12
2019-03-17T11:16:41.606Z,74.51
2019-03-17T11:19:17.046Z,73.97
2019-03-17T11:21:51.616Z,73.57
2019-03-17T11:24:25.487Z,72.14
2019-03-17T11:27:00.004Z,72.87
2019-03-17T11:29:34.273Z,70.66
2019-03-17T11:32:10.080Z,70.51
2019-03-17T11:34:44.144Z,69.41
2019-03-17T11:37:18.102Z,69.46
2019-03-17T11:39:52.694Z,68.96
2019-03-17T11:42:27.847Z,69.46
2019-03-17T11:45:03.617Z,69.26
2019-03-17T11:47:37.434Z,69.25
2019-03-17T11:50:12.920Z,70.12
2019-03-17T11:52:46.994Z,68.83
2019-03-17T11:55:22.348Z,68.97
2019-03-17T11:57:57.687Z,69.05
2019-03-17T12:00:33.377Z,68.39
2019-03-17T12:03:07.666Z,67.29
2019-03-17T12:05:42.581Z,65.10
2019-03-17T12:08:16.522Z,65.44
2019-03-17T12:10:50.122Z,65.04
2019-03-17T12:14:15.454Z,64.47
2019-03-17T12:17:33.393Z,65.53
2019-03-17T12:20:53.908Z,64.17
2019-03-17T12:23:29.428Z,64.17
2019-03-17T12:26:03.461Z,64.21
2019-03-17T12:28:57.240Z,65.14
2019-03-17T12:31:57.666Z,65.16
2019-03-17T12:35:17.755Z,65.51
2019-03-17T12:38:25.134Z,65.01
2019-03-17T12:40:59.261Z,63.71
2019-03-17T12:43:56.706Z,64.20
2019-03-17T12:46:37.900Z,64.00
2019-03-17T12:49:33.352Z,63.82
2019-03-17T12:52:57.171Z,63.12
2019-03-17T12:55:31.964Z,62.60
2019-03-17T12:58:14.991Z,63.56
2019-03-17T13:01:47.078Z,63.73
2019-03-17T13:04:58.850Z,64.40
2019-03-17T13:08:05.202Z,62.96
2019-03-17T13:10:41.409Z,61.47
2019-03-17T13:13:20.838Z,61.93
2019-03-17T13:16:50.557Z,61.92
2019-03-17T13:20:07.183Z,62.53
2019-03-17T13:23:33.639Z,63.01
2019-03-17T13:26:06.205Z,61.98
2019-03-17T13:28:40.716Z,62.31
2019-03-17T13:31:14.947Z,61.83
2019-03-17T13:33:51.863Z,61.79
2019-03-17T13:36:25.553Z,62.61
2019-03-17T13:38:59.365Z,66.18
2019-03-17T13:41:33.977Z,69.17
2019-03-17T13:44:07.890Z,70.77
2019-03-17T13:46:41.737Z,71.44
2019-03-17T13:49:15.634Z,72.32
2019-03-17T13:51:49.752Z,71.04
2019-03-17T13:54:23.713Z,68.66
2019-03-17T13:56:59.399Z,67.26
2019-03-17T13:59:33.589Z,66.23
2019-03-17T14:02:09.893Z,64.98
2019-03-17T14:04:44.295Z,63.42
2019-03-17T14:07:18.994Z,62.33
2019-03-17T14:09:53.903Z,62.59
2019-03-17T14:12:28.036Z,62.04
2019-03-17T14:15:01.615Z,61.08
2019-03-17T14:17:35.270Z,62.82
2019-03-17T14:20:11.197Z,62.13
2019-03-17T14:22:44.881Z,62.05
2019-03-17T14:25:24.921Z,61.06
2019-03-17T14:27:59.757Z,61.11
2019-03-17T14:30:33.628Z,61.69
2019-03-17T14:33:07.501Z,62.45
2019-03-17T14:35:41.636Z,62.41
2019-03-17T14:38:16.703Z,64.72
2019-03-17T14:40:53.877Z,66.66
2019-03-17T14:43:26.651Z,66.80
2019-03-17T14:46:00.663Z,68.28
2019-03-17T14:48:36.301Z,71.60
2019-03-17T14:51:09.915Z,73.11
2019-03-17T14:53:43.755Z,75.58
2019-03-17T14:56:18.040Z,76.45
2019-03-17T14:58:53.909Z,76.07
2019-03-17T15:01:27.736Z,75.99
2019-03-17T15:04:02.903Z,77.29
2019-03-17T15:06:36.992Z,77.62
2019-03-17T15:09:10.893Z,77.62
2019-03-17T15:11:44.871Z,76.75
2019-03-17T15:14:18.749Z,74.80
2019-03-17T15:16:52.657Z,74.75
2019-03-17T15:19:26.337Z,72.59
2019-03-17T15:21:59.975Z,71.75
2019-03-17T15:24:35.077Z,71.52
2019-03-17T15:27:09.035Z,72.29
2019-03-17T15:29:42.867Z,72.39
2019-03-17T15:32:16.486Z,72.57
2019-03-17T15:34:52.199Z,73.33
2019-03-17T15:37:25.933Z,73.08
2019-03-17T15:39:59.828Z,73.24
2019-03-17T15:42:34.643Z,73.25
2019-03-17T15:45:10.377Z,72.98
2019-03-17T15:47:47.625Z,72.01
2019-03-17T15:50:21.702Z,72.04
2019-03-17T15:52:55.951Z,70.56
2019-03-17T15:55:30.525Z,70.24
2019-03-17T15:58:04.382Z,68.37
2019-03-17T16:00:39.602Z,67.43
2019-03-17T16:03:13.713Z,67.45
2019-03-17T16:05:47.962Z,67.52
2019-03-17T16:08:23.293Z,67.11
2019-03-17T16:10:59.110Z,67.35
2019-03-17T16:13:32.965Z,65.89
2019-03-17T16:16:06.901Z,66.23
2019-03-17T16:18:41.772Z,66.38
2019-03-17T16:21:17.017Z,66.10
2019-03-17T16:23:51.449Z,66.33
2019-03-17T16:26:28.010Z,66.82
2019-03-17T16:29:02.504Z,68.17
2019-03-17T16:31:36.427Z,67.87
2019-03-17T16:34:11.196Z,67.82
2019-03-17T16:36:45.039Z,68.18
2019-03-17T16:39:19.868Z,68.42
2019-03-17T16:41:55.615Z,69.62
2019-03-17T16:44:29.516Z,69.78
2019-03-17T16:47:05.125Z,70.63
2019-03-17T16:49:38.831Z,70.26
2019-03-17T16:52:12.795Z,70.46
2019-03-17T16:54:46.707Z,70.63
2019-03-17T16:57:20.871Z,71.41
2019-03-17T16:59:54.597Z,71.05
2019-03-17T17:02:30.431Z,71.51
2019-03-17T17:05:05.432Z,70.86
2019-03-17T17:07:39.584Z,71.17
2019-03-17T17:10:15.518Z,71.90
2019-03-17T17:12:49.701Z,71.91
2019-03-17T17:15:26.149Z,71.19
2019-03-17T17:18:00.175Z,71.11
2019-03-17T17:20:34.543Z,71.53
2019-03-17T17:23:10.243Z,71.90
2019-03-17T17:25:46.985Z,72.09
2019-03-17T17:28:22.007Z,72.10
2019-03-17T17:30:57.737Z,71.97
2019-03-17T17:33:31.488Z,71.43
2019-03-17T17:36:08.663Z,71.70
2019-03-17T17:38:42.723Z,72.72
2019-03-17T17:41:16.449Z,72.85
2019-03-17T17:43:52.896Z,72.91
2019-03-17T17:46:26.691Z,72.09
2019-03-17T17:49:02.023Z,72.20
2019-03-17T17:51:35.855Z,72.64
2019-03-17T17:54:10.832Z,72.38
2019-03-17T17:56:44.556Z,72.50
2019-03-17T17:59:20.192Z,73.10
2019-03-17T18:01:54.943Z,73.45
2019-03-17T18:04:30.611Z,73.89
2019-03-17T18:07:05.952Z,74.33
2019-03-17T18:09:40.090Z,75.25
2019-03-17T18:12:20.981Z,75.52
2019-03-17T18:14:52.466Z,75.75
2019-03-17T18:17:29.122Z,76.46
2019-03-17T18:20:03.762Z,77.39
2019-03-17T18:22:38.621Z,77.53
2019-03-17T18:25:15.143Z,77.75
2019-03-17T18:27:49.687Z,78.01
2019-03-17T18:30:24.718Z,77.93
2019-03-17T18:33:01.082Z,78.37
2019-03-17T18:35:35.221Z,78.79
2019-03-17T18:38:09.642Z,79.21
2019-03-17T18:40:44.098Z,79.12
2019-03-17T18:43:19.761Z,79.13
2019-03-17T18:45:53.923Z,78.53
2019-03-17T18:48:30.619Z,78.61
2019-03-17T18:51:07.811Z,78.44
2019-03-17T18:53:43.497Z,78.21
2019-03-17T18:56:18.573Z,77.96
2019-03-17T18:58:54.899Z,77.74
2019-03-17T19:01:28.573Z,77.51
2019-03-17T19:04:10.415Z,77.88
2019-03-17T19:06:44.756Z,78.13
2019-03-17T19:09:18.649Z,78.35
2019-03-17T19:11:52.778Z,77.99
2019-03-17T19:14:26.671Z,78.60
2019-03-17T19:17:00.641Z,78.67
2019-03-17T19:19:34.631Z,78.70
2019-03-17T19:22:08.396Z,79.40
2019-03-17T19:24:42.288Z,78.65
2019-03-17T19:27:16.288Z,78.14
2019-03-17T19:29:52.618Z,77.79
2019-03-17T19:32:27.757Z,77.55
2019-03-17T19:35:01.816Z,77.28
2019-03-17T19:37:35.797Z,76.51
2019-03-17T19:40:11.325Z,76.56
2019-03-17T19:42:58.086Z,76.63
2019-03-17T19:45:23.452Z,76.30
2019-03-17T19:47:57.236Z,76.60
2019-03-17T19:50:31.266Z,77.04
2019-03-17T19:53:07.948Z,77.46
2019-03-17T19:55:42.145Z,77.91
2019-03-17T19:58:17.830Z,78.56
2019-03-17T20:00:51.978Z,78.65
2019-03-17T20:03:28.460Z,78.59
2019-03-17T20:06:04.730Z,78.78
2019-03-17T20:08:39.230Z,78.68
2019-03-17T20:11:14.202Z,79.00
2019-03-17T20:13:59.965Z,78.43
2019-03-17T20:16:34.110Z,78.48
2019-03-17T20:19:08.180Z,78.51
2019-03-17T20:21:42.372Z,79.00
2019-03-17T20:24:18.756Z,78.99
2019-03-17T20:26:57.093Z,78.64
2019-03-17T20:29:31.916Z,78.80
2019-03-17T20:32:05.711Z,78.90
2019-03-17T20:34:39.552Z,78.86
2019-03-17T20:37:13.963Z,79.14
2019-03-17T20:39:48.225Z,79.36
2019-03-17T20:42:21.986Z,79.85
2019-03-17T20:44:56.346Z,79.84
2019-03-17T20:47:30.413Z,79.33
2019-03-17T20:50:04.452Z,79.54
2019-03-17T20:52:38.465Z,79.61
2019-03-17T20:55:12.672Z,79.78
2019-03-17T20:57:46.837Z,79.93
2019-03-17T21:00:21.300Z,80.25
2019-03-17T21:02:56.640Z,80.26
2019-03-17T21:05:32.139Z,79.98
2019-03-17T21:08:06.254Z,79.26
2019-03-17T21:10:40.460Z,79.00
2019-03-17T21:13:16.848Z,78.91
2019-03-17T21:15:50.600Z,79.45
2019-03-17T21:18:24.616Z,78.93
2019-03-17T21:20:59.129Z,78.93
2019-03-17T21:23:32.755Z,79.07
2019-03-17T21:26:07.120Z,78.50
2019-03-17T21:28:40.814Z,78.81
2019-03-17T21:31:16.491Z,78.76
2019-03-17T21:33:50.452Z,78.81
2019-03-17T21:36:26.213Z,78.88
2019-03-17T21:39:00.635Z,78.92
2019-03-17T21:41:34.241Z,79.07
2019-03-17T21:44:07.806Z,78.49
2019-03-17T21:46:41.407Z,78.51
2019-03-17T21:49:14.994Z,77.97
2019-03-17T21:51:48.772Z,78.29
2019-03-17T21:54:23.958Z,78.15
2019-03-17T21:56:59.036Z,78.32
2019-03-17T21:59:33.246Z,77.84
2019-03-17T22:02:12.963Z,78.06
2019-03-17T22:04:42.398Z,78.01
2019-03-17T22:07:16.896Z,78.15
2019-03-17T22:09:51.202Z,78.33
2019-03-17T22:12:25.028Z,79.01
2019-03-17T22:14:58.613Z,78.94
2019-03-17T22:17:32.344Z,79.05
2019-03-17T22:20:08.889Z,79.57
2019-03-17T22:22:42.961Z,79.35
2019-03-17T22:25:16.614Z,79.80
2019-03-17T22:27:52.184Z,79.69
2019-03-17T22:30:25.999Z,79.48
2019-03-17T22:32:59.780Z,78.92
2019-03-17T22:35:33.475Z,79.02
2019-03-17T22:38:08.485Z,78.82
2019-03-17T22:40:42.426Z,78.95
2019-03-17T22:43:17.354Z,79.31
2019-03-17T22:45:51.061Z,79.04
2019-03-17T22:48:26.200Z,79.10
2019-03-17T22:51:01.338Z,78.92
2019-03-17T22:53:36.924Z,79.07
2019-03-17T22:56:12.455Z,79.22
2019-03-17T22:58:46.219Z,79.26
2019-03-17T23:01:20.080Z,79.01
2019-03-17T23:03:53.842Z,78.98
2019-03-17T23:06:27.893Z,78.99
2019-03-17T23:09:01.528Z,78.73
2019-03-17T23:11:36.099Z,78.84
2019-03-17T23:14:09.896Z,78.60
2019-03-17T23:16:46.787Z,78.68
2019-03-17T23:19:20.932Z,78.27
2019-03-17T23:21:54.723Z,77.87
2019-03-17T23:24:28.415Z,77.65
2019-03-17T23:27:02.139Z,77.77
2019-03-17T23:29:36.073Z,77.60
2019-03-17T23:32:09.829Z,77.65
2019-03-17T23:34:43.748Z,78.10
2019-03-17T23:37:17.493Z,77.79
2019-03-17T23:39:53.253Z,77.67
2019-03-17T23:42:26.974Z,77.78
2019-03-17T23:45:01.640Z,77.37
2019-03-17T23:47:35.554Z,77.86
2019-03-17T23:50:09.981Z,78.12
2019-03-17T23:52:45.069Z,77.92
2019-03-17T23:55:19.024Z,78.32
2019-03-17T23:57:52.745Z,78.15
